createdAt,value
2022-07-31T00:00:27.810Z,0.00
2022-07-31T00:01:26.687Z,0.00
2022-07-31T00:02:26.676Z,0.00
2022-07-31T00:03:26.776Z,0.00
2022-07-31T00:04:26.659Z,0.00
2022-07-31T00:05:26.651Z,0.00
2022-07-31T00:06:26.634Z,0.00
2022-07-31T00:07:26.620Z,0.00
2022-07-31T00:08:26.610Z,0.00
2022-07-31T00:09:53.681Z,0.00
2022-07-31T00:10:27.617Z,0.00
2022-07-31T00:11:26.578Z,0.00
2022-07-31T00:12:26.565Z,0.00
2022-07-31T00:13:57.972Z,0.00
2022-07-31T00:14:27.542Z,0.00
2022-07-31T00:15:26.530Z,0.00
2022-07-31T00:16:26.536Z,0.00
2022-07-31T00:17:26.510Z,0.00
2022-07-31T00:18:26.500Z,0.00
2022-07-31T00:19:26.487Z,0.00
2022-07-31T00:20:26.476Z,0.00
2022-07-31T00:21:26.465Z,0.00
2022-07-31T00:22:26.505Z,0.00
2022-07-31T00:23:26.442Z,0.00
2022-07-31T00:24:26.435Z,0.00
2022-07-31T00:25:26.422Z,0.00
2022-07-31T00:26:26.410Z,0.00
2022-07-31T00:27:26.399Z,0.00
2022-07-31T00:28:26.393Z,0.00
2022-07-31T00:29:26.377Z,0.00
2022-07-31T00:30:26.366Z,0.00
2022-07-31T00:31:26.355Z,0.00
2022-07-31T00:32:26.343Z,0.00
2022-07-31T00:33:26.332Z,0.00
2022-07-31T00:34:26.341Z,0.00
2022-07-31T00:35:26.309Z,0.00
2022-07-31T00:36:28.493Z,0.00
2022-07-31T00:37:26.287Z,0.00
2022-07-31T00:38:27.130Z,0.00
2022-07-31T00:39:26.265Z,0.00
2022-07-31T00:40:26.259Z,0.00
2022-07-31T00:41:26.244Z,0.00
2022-07-31T00:42:26.234Z,0.00
2022-07-31T00:43:30.691Z,0.00
2022-07-31T00:44:26.237Z,0.00
2022-07-31T00:45:29.111Z,0.00
2022-07-31T00:46:27.218Z,0.00
2022-07-31T00:47:26.177Z,0.00
2022-07-31T00:48:26.169Z,0.00
2022-07-31T00:49:26.230Z,0.00
2022-07-31T00:50:27.143Z,0.00
2022-07-31T00:51:26.133Z,0.00
2022-07-31T00:52:26.135Z,0.00
2022-07-31T00:53:26.110Z,0.00
2022-07-31T00:54:26.101Z,0.00
2022-07-31T00:55:26.088Z,0.00
2022-07-31T00:56:26.079Z,0.00
2022-07-31T00:57:26.066Z,0.00
2022-07-31T00:58:26.063Z,0.00
2022-07-31T00:59:26.044Z,0.00
2022-07-31T01:00:26.033Z,0.00
2022-07-31T01:01:26.140Z,0.00
2022-07-31T01:02:26.012Z,0.00
2022-07-31T01:03:26.001Z,0.00
2022-07-31T01:04:25.994Z,0.00
2022-07-31T01:05:25.976Z,0.00
2022-07-31T01:06:25.967Z,0.00
2022-07-31T01:07:25.954Z,0.00
2022-07-31T01:08:25.943Z,0.00
2022-07-31T01:09:25.938Z,0.00
2022-07-31T01:10:25.942Z,0.00
2022-07-31T01:11:25.911Z,0.00
2022-07-31T01:12:25.901Z,0.00
2022-07-31T01:13:25.888Z,0.00
2022-07-31T01:14:25.881Z,0.00
2022-07-31T01:15:25.867Z,0.00
2022-07-31T01:16:25.862Z,0.00
2022-07-31T01:17:25.845Z,0.00
2022-07-31T01:18:25.834Z,0.00
2022-07-31T01:19:37.940Z,0.00
2022-07-31T01:20:26.810Z,0.00
2022-07-31T01:21:25.800Z,0.00
2022-07-31T01:22:33.760Z,0.00
2022-07-31T01:23:26.777Z,0.00
2022-07-31T01:24:25.767Z,0.00
2022-07-31T01:25:25.757Z,0.00
2022-07-31T01:26:25.745Z,0.00
2022-07-31T01:27:25.733Z,0.00
2022-07-31T01:28:25.767Z,0.00
2022-07-31T01:29:25.711Z,0.00
2022-07-31T01:30:30.438Z,0.00
2022-07-31T01:31:27.612Z,0.00
2022-07-31T01:32:27.621Z,0.00
2022-07-31T01:33:25.668Z,0.00
2022-07-31T01:34:25.663Z,0.00
2022-07-31T01:35:25.649Z,0.00
2022-07-31T01:36:25.633Z,0.00
2022-07-31T01:37:25.623Z,0.00
2022-07-31T01:38:25.612Z,0.00
2022-07-31T01:39:25.600Z,0.00
2022-07-31T01:40:25.596Z,0.00
2022-07-31T01:41:25.579Z,0.00
2022-07-31T01:42:25.570Z,0.00
2022-07-31T01:43:25.557Z,0.00
2022-07-31T01:44:25.545Z,0.00
2022-07-31T01:45:25.533Z,0.00
2022-07-31T01:46:25.544Z,0.00
2022-07-31T01:47:25.511Z,0.00
2022-07-31T01:48:25.500Z,0.00
2022-07-31T01:49:25.576Z,0.00
2022-07-31T01:50:42.230Z,0.00
2022-07-31T01:51:26.471Z,0.00
2022-07-31T01:52:25.458Z,0.00
2022-07-31T01:53:25.445Z,0.00
2022-07-31T01:54:25.433Z,0.00
2022-07-31T01:55:25.424Z,0.00
2022-07-31T01:56:25.411Z,0.00
2022-07-31T01:57:25.416Z,0.00
2022-07-31T01:58:25.390Z,0.00
2022-07-31T01:59:25.378Z,0.00
2022-07-31T02:00:34.465Z,0.00
2022-07-31T02:01:27.442Z,0.00
2022-07-31T02:02:25.347Z,0.00
2022-07-31T02:03:42.970Z,0.00
2022-07-31T02:04:26.327Z,0.00
2022-07-31T02:05:25.313Z,0.00
2022-07-31T02:06:25.301Z,0.00
2022-07-31T02:07:25.289Z,0.00
2022-07-31T02:08:25.280Z,0.00
2022-07-31T02:09:25.274Z,0.00
2022-07-31T02:10:25.258Z,0.00
2022-07-31T02:11:25.247Z,0.00
2022-07-31T02:12:33.240Z,0.00
2022-07-31T02:13:26.222Z,0.00
2022-07-31T02:14:25.213Z,0.00
2022-07-31T02:15:25.207Z,0.00
2022-07-31T02:16:25.190Z,0.00
2022-07-31T02:17:25.181Z,0.00
2022-07-31T02:18:25.168Z,0.00
2022-07-31T02:19:25.156Z,0.00
2022-07-31T02:20:25.147Z,0.00
2022-07-31T02:21:25.155Z,0.00
2022-07-31T02:22:25.123Z,0.00
2022-07-31T02:23:25.111Z,0.00
2022-07-31T02:24:25.101Z,0.00
2022-07-31T02:25:25.091Z,0.00
2022-07-31T02:26:25.079Z,0.00
2022-07-31T02:27:53.942Z,0.00
2022-07-31T02:28:26.056Z,0.00
2022-07-31T02:29:25.046Z,0.00
2022-07-31T02:30:25.034Z,0.00
2022-07-31T02:31:25.023Z,0.00
2022-07-31T02:32:25.015Z,0.00
2022-07-31T02:33:25.047Z,0.00
2022-07-31T02:34:29.266Z,0.00
2022-07-31T02:35:25.984Z,0.00
2022-07-31T02:36:24.967Z,0.00
2022-07-31T02:37:24.958Z,0.00
2022-07-31T02:38:24.945Z,0.00
2022-07-31T02:39:30.072Z,0.00
2022-07-31T02:40:25.923Z,0.00
2022-07-31T02:41:24.911Z,0.00
2022-07-31T02:42:24.900Z,0.00
2022-07-31T02:43:24.890Z,0.00
2022-07-31T02:44:27.212Z,0.00
2022-07-31T02:45:24.876Z,0.00
2022-07-31T02:46:24.861Z,0.00
2022-07-31T02:47:24.845Z,0.00
2022-07-31T02:48:24.839Z,0.00
2022-07-31T02:49:24.899Z,0.00
2022-07-31T02:50:24.813Z,0.00
2022-07-31T02:51:24.806Z,0.00
2022-07-31T02:52:24.791Z,0.00
2022-07-31T02:53:24.780Z,0.00
2022-07-31T02:54:24.769Z,0.00
2022-07-31T02:55:24.757Z,0.00
2022-07-31T02:56:24.748Z,0.00
2022-07-31T02:57:24.756Z,0.00
2022-07-31T02:58:24.727Z,0.00
2022-07-31T02:59:24.712Z,0.00
2022-07-31T03:00:24.780Z,0.00
2022-07-31T03:01:24.739Z,0.00
2022-07-31T03:02:24.679Z,0.00
2022-07-31T03:03:25.672Z,0.00
2022-07-31T03:04:24.655Z,0.00
2022-07-31T03:05:24.645Z,0.00
2022-07-31T03:06:24.635Z,0.00
2022-07-31T03:07:24.624Z,0.00
2022-07-31T03:08:24.611Z,0.00
2022-07-31T03:09:24.616Z,0.00
2022-07-31T03:10:24.589Z,0.00
2022-07-31T03:11:24.578Z,0.00
2022-07-31T03:12:24.568Z,0.00
2022-07-31T03:13:24.556Z,0.00
2022-07-31T03:14:24.545Z,0.00
2022-07-31T03:15:25.571Z,0.00
2022-07-31T03:16:24.523Z,0.00
2022-07-31T03:17:24.512Z,0.00
2022-07-31T03:18:25.501Z,0.00
2022-07-31T03:19:24.491Z,0.00
2022-07-31T03:20:24.479Z,0.00
2022-07-31T03:21:24.474Z,0.00
2022-07-31T03:22:24.457Z,0.00
2022-07-31T03:23:24.445Z,0.00
2022-07-31T03:24:24.436Z,0.00
2022-07-31T03:25:24.422Z,0.00
2022-07-31T03:26:24.412Z,0.00
2022-07-31T03:27:24.407Z,0.00
2022-07-31T03:28:24.390Z,0.00
2022-07-31T03:29:36.120Z,0.00
2022-07-31T03:30:25.573Z,0.00
2022-07-31T03:31:24.356Z,0.00
2022-07-31T03:32:24.345Z,0.00
2022-07-31T03:33:24.374Z,0.00
2022-07-31T03:34:24.323Z,0.00
2022-07-31T03:35:24.362Z,0.00
2022-07-31T03:36:24.307Z,0.00
2022-07-31T03:37:24.294Z,0.00
2022-07-31T03:38:40.672Z,0.00
2022-07-31T03:39:25.297Z,0.00
2022-07-31T03:40:24.259Z,0.00
2022-07-31T03:41:24.247Z,0.00
2022-07-31T03:42:24.235Z,0.00
2022-07-31T03:43:24.228Z,0.00
2022-07-31T03:44:24.212Z,0.00
2022-07-31T03:45:24.216Z,0.00
2022-07-31T03:46:24.191Z,0.00
2022-07-31T03:47:24.179Z,0.00
2022-07-31T03:48:24.168Z,0.00
2022-07-31T03:49:24.227Z,0.00
2022-07-31T03:50:24.146Z,0.00
2022-07-31T03:51:24.139Z,0.00
2022-07-31T03:52:24.123Z,0.00
2022-07-31T03:53:24.113Z,0.00
2022-07-31T03:54:24.101Z,0.00
2022-07-31T03:55:24.090Z,0.00
2022-07-31T03:56:24.079Z,0.00
2022-07-31T03:57:28.772Z,0.00
2022-07-31T03:58:25.056Z,0.00
2022-07-31T03:59:24.046Z,0.00
2022-07-31T04:00:24.035Z,0.00
2022-07-31T04:01:24.122Z,5.62
2022-07-31T04:02:24.025Z,5.62
2022-07-31T04:03:24.007Z,5.62
2022-07-31T04:04:23.989Z,5.62
2022-07-31T04:05:23.979Z,5.62
2022-07-31T04:06:23.968Z,5.62
2022-07-31T04:07:23.958Z,5.62
2022-07-31T04:08:23.946Z,5.62
2022-07-31T04:09:23.956Z,5.62
2022-07-31T04:10:23.925Z,5.62
2022-07-31T04:11:23.912Z,5.62
2022-07-31T04:12:23.901Z,5.62
2022-07-31T04:13:23.890Z,5.62
2022-07-31T04:14:23.880Z,5.62
2022-07-31T04:15:23.875Z,5.62
2022-07-31T04:16:23.856Z,5.62
2022-07-31T04:17:23.846Z,5.62
2022-07-31T04:18:23.835Z,5.62
2022-07-31T04:19:23.827Z,5.62
2022-07-31T04:20:23.812Z,5.62
2022-07-31T04:21:23.830Z,5.62
2022-07-31T04:22:23.790Z,5.62
2022-07-31T04:23:23.778Z,5.62
2022-07-31T04:24:24.772Z,5.62
2022-07-31T04:25:23.757Z,5.62
2022-07-31T04:26:26.169Z,5.62
2022-07-31T04:27:23.751Z,5.62
2022-07-31T04:28:23.725Z,5.62
2022-07-31T04:29:23.713Z,5.62
2022-07-31T04:30:23.704Z,5.62
2022-07-31T04:31:23.691Z,5.62
2022-07-31T04:32:23.678Z,5.62
2022-07-31T04:33:23.673Z,5.62
2022-07-31T04:34:23.656Z,5.62
2022-07-31T04:35:23.648Z,5.62
2022-07-31T04:36:29.944Z,5.62
2022-07-31T04:37:24.622Z,5.62
2022-07-31T04:38:23.613Z,5.62
2022-07-31T04:39:23.624Z,5.62
2022-07-31T04:40:23.589Z,5.62
2022-07-31T04:41:23.579Z,5.62
2022-07-31T04:42:23.567Z,5.62
2022-07-31T04:43:23.557Z,5.62
2022-07-31T04:44:23.546Z,5.62
2022-07-31T04:45:23.559Z,5.62
2022-07-31T04:46:23.523Z,5.62
2022-07-31T04:47:23.511Z,5.62
2022-07-31T04:48:23.503Z,5.62
2022-07-31T04:49:23.517Z,5.62
2022-07-31T04:50:23.478Z,11.25
2022-07-31T04:51:23.474Z,11.25
2022-07-31T04:52:23.457Z,11.25
2022-07-31T04:53:23.446Z,11.25
2022-07-31T04:54:23.436Z,11.25
2022-07-31T04:55:23.424Z,11.25
2022-07-31T04:56:23.412Z,11.25
2022-07-31T04:57:23.417Z,11.25
2022-07-31T04:58:23.392Z,11.25
2022-07-31T04:59:23.380Z,11.25
2022-07-31T05:00:24.368Z,11.25
2022-07-31T05:01:23.409Z,11.25
2022-07-31T05:02:23.345Z,11.25
2022-07-31T05:03:23.364Z,11.25
2022-07-31T05:04:23.324Z,11.25
2022-07-31T05:05:23.312Z,11.25
2022-07-31T05:06:23.300Z,11.25
2022-07-31T05:07:23.289Z,11.25
2022-07-31T05:08:23.280Z,11.25
2022-07-31T05:09:23.617Z,11.25
2022-07-31T05:10:23.257Z,11.25
2022-07-31T05:11:23.246Z,11.25
2022-07-31T05:12:23.235Z,11.25
2022-07-31T05:13:23.224Z,11.25
2022-07-31T05:14:23.218Z,11.25
2022-07-31T05:15:23.208Z,11.25
2022-07-31T05:16:23.190Z,11.25
2022-07-31T05:17:23.178Z,11.25
2022-07-31T05:18:23.169Z,11.25
2022-07-31T05:19:23.158Z,11.25
2022-07-31T05:20:23.146Z,11.25
2022-07-31T05:21:23.156Z,11.25
2022-07-31T05:22:23.126Z,11.25
2022-07-31T05:23:23.112Z,11.25
2022-07-31T05:24:33.386Z,11.25
2022-07-31T05:25:24.090Z,11.25
2022-07-31T05:26:23.079Z,11.25
2022-07-31T05:27:23.074Z,11.25
2022-07-31T05:28:29.990Z,11.25
2022-07-31T05:29:24.044Z,11.25
2022-07-31T05:30:30.182Z,11.25
2022-07-31T05:31:24.022Z,11.25
2022-07-31T05:32:23.017Z,11.25
2022-07-31T05:33:23.017Z,11.25
2022-07-31T05:34:22.992Z,11.25
2022-07-31T05:35:22.980Z,11.25
2022-07-31T05:36:22.968Z,11.25
2022-07-31T05:37:22.957Z,11.25
2022-07-31T05:38:22.946Z,11.25
2022-07-31T05:39:22.964Z,11.25
2022-07-31T05:40:22.924Z,11.25
2022-07-31T05:41:22.911Z,11.25
2022-07-31T05:42:22.901Z,11.25
2022-07-31T05:43:22.891Z,11.25
2022-07-31T05:44:22.887Z,11.25
2022-07-31T05:45:22.890Z,11.25
2022-07-31T05:46:22.856Z,11.25
2022-07-31T05:47:22.846Z,11.25
2022-07-31T05:48:22.833Z,11.25
2022-07-31T05:49:22.878Z,11.25
2022-07-31T05:50:22.814Z,11.25
2022-07-31T05:51:22.809Z,11.25
2022-07-31T05:52:22.789Z,11.25
2022-07-31T05:53:22.778Z,11.25
2022-07-31T05:54:22.771Z,11.25
2022-07-31T05:55:22.756Z,11.25
2022-07-31T05:56:22.746Z,11.25
2022-07-31T05:57:26.466Z,16.88
2022-07-31T05:58:23.723Z,16.88
2022-07-31T05:59:22.718Z,16.88
2022-07-31T06:00:22.700Z,16.88
2022-07-31T06:01:22.772Z,16.88
2022-07-31T06:02:22.680Z,16.88
2022-07-31T06:03:22.698Z,16.88
2022-07-31T06:04:22.655Z,16.88
2022-07-31T06:05:22.645Z,16.88
2022-07-31T06:06:22.636Z,16.88
2022-07-31T06:07:22.626Z,16.88
2022-07-31T06:08:22.612Z,16.88
2022-07-31T06:09:22.607Z,16.88
2022-07-31T06:10:22.590Z,16.88
2022-07-31T06:11:22.578Z,16.88
2022-07-31T06:12:22.569Z,16.88
2022-07-31T06:13:22.558Z,16.88
2022-07-31T06:14:22.546Z,16.88
2022-07-31T06:15:22.550Z,16.88
2022-07-31T06:16:22.523Z,16.88
2022-07-31T06:17:22.549Z,16.88
2022-07-31T06:18:22.501Z,16.88
2022-07-31T06:19:24.374Z,16.88
2022-07-31T06:20:22.479Z,16.88
2022-07-31T06:21:22.474Z,16.88
2022-07-31T06:22:22.458Z,16.88
2022-07-31T06:23:27.887Z,16.88
2022-07-31T06:24:23.437Z,16.88
2022-07-31T06:25:22.423Z,16.88
2022-07-31T06:26:23.135Z,16.88
2022-07-31T06:27:33.401Z,16.88
2022-07-31T06:28:26.069Z,16.88
2022-07-31T06:29:23.854Z,16.88
2022-07-31T06:30:23.368Z,16.88
2022-07-31T06:31:22.360Z,16.88
2022-07-31T06:32:22.345Z,16.88
2022-07-31T06:33:37.785Z,16.88
2022-07-31T06:34:23.324Z,16.88
2022-07-31T06:35:22.314Z,16.88
2022-07-31T06:36:22.301Z,16.88
2022-07-31T06:37:22.290Z,16.88
2022-07-31T06:38:22.279Z,16.88
2022-07-31T06:39:22.299Z,16.88
2022-07-31T06:40:22.259Z,16.88
2022-07-31T06:41:22.247Z,16.88
2022-07-31T06:42:22.234Z,16.88
2022-07-31T06:43:22.225Z,16.88
2022-07-31T06:44:22.213Z,16.88
2022-07-31T06:45:41.892Z,16.88
2022-07-31T06:46:23.192Z,16.88
2022-07-31T06:47:22.179Z,16.88
2022-07-31T06:48:22.170Z,16.88
2022-07-31T06:49:22.246Z,16.88
2022-07-31T06:50:22.148Z,16.88
2022-07-31T06:51:31.180Z,16.88
2022-07-31T06:52:23.123Z,16.88
2022-07-31T06:53:22.112Z,16.88
2022-07-31T06:54:22.103Z,16.88
2022-07-31T06:55:22.090Z,16.88
2022-07-31T06:56:22.079Z,16.88
2022-07-31T06:57:22.074Z,16.88
2022-07-31T06:58:22.058Z,16.88
2022-07-31T06:59:39.188Z,16.88
2022-07-31T07:00:23.034Z,16.88
2022-07-31T07:01:22.127Z,16.88
2022-07-31T07:02:22.013Z,22.50
2022-07-31T07:03:22.008Z,22.50
2022-07-31T07:04:21.993Z,22.50
2022-07-31T07:05:22.982Z,22.50
2022-07-31T07:06:21.968Z,22.50
2022-07-31T07:07:21.961Z,22.50
2022-07-31T07:08:21.947Z,22.50
2022-07-31T07:09:21.941Z,22.50
2022-07-31T07:10:21.924Z,22.50
2022-07-31T07:11:21.917Z,22.50
2022-07-31T07:12:21.901Z,22.50
2022-07-31T07:13:21.890Z,22.50
2022-07-31T07:14:21.879Z,22.50
2022-07-31T07:15:21.902Z,22.50
2022-07-31T07:16:21.859Z,22.50
2022-07-31T07:17:25.921Z,22.50
2022-07-31T07:18:22.835Z,22.50
2022-07-31T07:19:21.824Z,22.50
2022-07-31T07:20:21.815Z,22.50
2022-07-31T07:21:21.819Z,22.50
2022-07-31T07:22:31.683Z,22.50
2022-07-31T07:23:22.779Z,22.50
2022-07-31T07:24:21.768Z,22.50
2022-07-31T07:25:21.761Z,22.50
2022-07-31T07:26:21.749Z,22.50
2022-07-31T07:27:21.741Z,22.50
2022-07-31T07:28:31.144Z,22.50
2022-07-31T07:29:22.714Z,22.50
2022-07-31T07:30:21.745Z,22.50
2022-07-31T07:31:21.691Z,22.50
2022-07-31T07:32:21.679Z,22.50
2022-07-31T07:33:39.759Z,22.50
2022-07-31T07:34:22.657Z,22.50
2022-07-31T07:35:21.649Z,22.50
2022-07-31T07:36:23.832Z,22.50
2022-07-31T07:37:21.626Z,22.50
2022-07-31T07:38:21.614Z,22.50
2022-07-31T07:39:21.622Z,22.50
2022-07-31T07:40:21.655Z,22.50
2022-07-31T07:41:21.579Z,22.50
2022-07-31T07:42:21.568Z,22.50
2022-07-31T07:43:21.558Z,22.50
2022-07-31T07:44:21.547Z,22.50
2022-07-31T07:45:21.541Z,28.12
2022-07-31T07:46:21.525Z,28.12
2022-07-31T07:47:21.514Z,28.12
2022-07-31T07:48:21.503Z,28.12
2022-07-31T07:49:21.586Z,28.12
2022-07-31T07:50:21.515Z,28.12
2022-07-31T07:51:21.514Z,28.12
2022-07-31T07:52:21.459Z,28.12
2022-07-31T07:53:21.449Z,28.12
2022-07-31T07:54:21.436Z,28.12
2022-07-31T07:55:21.425Z,28.12
2022-07-31T07:56:21.416Z,28.12
2022-07-31T07:57:21.418Z,28.12
2022-07-31T07:58:21.392Z,28.12
2022-07-31T07:59:21.380Z,28.12
2022-07-31T08:00:21.463Z,28.12
2022-07-31T08:01:21.420Z,28.12
2022-07-31T08:02:21.347Z,28.12
2022-07-31T08:03:49.801Z,28.12
2022-07-31T08:04:22.326Z,28.12
2022-07-31T08:05:21.314Z,28.12
2022-07-31T08:06:21.304Z,28.12
2022-07-31T08:07:21.293Z,28.12
2022-07-31T08:08:21.280Z,28.12
2022-07-31T08:09:21.274Z,28.12
2022-07-31T08:10:21.257Z,28.12
2022-07-31T08:11:21.249Z,28.12
2022-07-31T08:12:21.237Z,28.12
2022-07-31T08:13:21.227Z,28.12
2022-07-31T08:14:21.214Z,28.12
2022-07-31T08:15:21.209Z,28.12
2022-07-31T08:16:21.191Z,28.12
2022-07-31T08:17:21.180Z,33.75
2022-07-31T08:18:21.170Z,33.75
2022-07-31T08:19:21.159Z,33.75
2022-07-31T08:20:21.147Z,33.75
2022-07-31T08:21:21.143Z,33.75
2022-07-31T08:22:21.126Z,33.75
2022-07-31T08:23:21.115Z,33.75
2022-07-31T08:24:21.103Z,33.75
2022-07-31T08:25:21.092Z,33.75
2022-07-31T08:26:21.081Z,33.75
2022-07-31T08:27:21.518Z,33.75
2022-07-31T08:28:24.143Z,33.75
2022-07-31T08:29:26.500Z,33.75
2022-07-31T08:30:22.036Z,33.75
2022-07-31T08:31:21.077Z,33.75
2022-07-31T08:32:21.016Z,33.75
2022-07-31T08:33:21.036Z,33.75
2022-07-31T08:34:31.208Z,33.75
2022-07-31T08:35:21.981Z,33.75
2022-07-31T08:36:20.971Z,33.75
2022-07-31T08:37:50.861Z,33.75
2022-07-31T08:38:21.954Z,33.75
2022-07-31T08:39:21.136Z,33.75
2022-07-31T08:40:20.927Z,33.75
2022-07-31T08:41:20.916Z,33.75
2022-07-31T08:42:20.905Z,33.75
2022-07-31T08:44:27.088Z,39.38
2022-07-31T08:45:22.692Z,39.38
2022-07-31T08:46:20.862Z,39.38
2022-07-31T08:47:20.849Z,39.38
2022-07-31T08:48:20.838Z,39.38
2022-07-31T08:49:20.873Z,39.38
2022-07-31T08:50:20.822Z,39.38
2022-07-31T08:51:20.805Z,39.38
2022-07-31T08:52:20.794Z,39.38
2022-07-31T08:53:20.783Z,39.38
2022-07-31T08:54:20.774Z,39.38
2022-07-31T08:55:24.824Z,39.38
2022-07-31T08:56:21.769Z,39.38
2022-07-31T08:57:20.739Z,39.38
2022-07-31T08:58:20.728Z,39.38
2022-07-31T08:59:20.717Z,39.38
2022-07-31T09:00:20.707Z,39.38
2022-07-31T09:01:20.752Z,39.38
2022-07-31T09:02:20.711Z,39.38
2022-07-31T09:03:20.673Z,39.38
2022-07-31T09:04:20.661Z,39.38
2022-07-31T09:05:20.650Z,39.38
2022-07-31T09:06:20.639Z,39.38
2022-07-31T09:07:20.627Z,45.00
2022-07-31T09:08:20.635Z,45.00
2022-07-31T09:09:20.604Z,45.00
2022-07-31T09:10:20.597Z,45.00
2022-07-31T09:11:20.583Z,45.00
2022-07-31T09:12:20.575Z,45.00
2022-07-31T09:13:21.567Z,45.00
2022-07-31T09:14:20.551Z,45.00
2022-07-31T09:15:20.544Z,45.00
2022-07-31T09:16:24.189Z,45.00
2022-07-31T09:17:21.515Z,45.00
2022-07-31T09:18:20.506Z,45.00
2022-07-31T09:19:51.741Z,45.00
2022-07-31T09:20:21.482Z,45.00
2022-07-31T09:21:20.473Z,45.00
2022-07-31T09:22:20.461Z,45.00
2022-07-31T09:23:20.450Z,45.00
2022-07-31T09:24:20.441Z,45.00
2022-07-31T09:25:20.436Z,45.00
2022-07-31T09:26:20.418Z,45.00
2022-07-31T09:27:20.409Z,45.00
2022-07-31T09:28:24.992Z,45.00
2022-07-31T09:29:20.385Z,45.00
2022-07-31T09:30:20.375Z,45.00
2022-07-31T09:31:20.367Z,45.00
2022-07-31T09:32:20.353Z,45.00
2022-07-31T09:33:20.342Z,45.00
2022-07-31T09:34:20.330Z,50.62
2022-07-31T09:35:20.318Z,50.62
2022-07-31T09:36:20.307Z,50.62
2022-07-31T09:37:20.326Z,50.62
2022-07-31T09:38:20.284Z,50.62
2022-07-31T09:39:24.708Z,50.62
2022-07-31T09:40:21.472Z,50.62
2022-07-31T09:41:56.438Z,50.62
2022-07-31T09:42:21.248Z,50.62
2022-07-31T09:43:20.233Z,50.62
2022-07-31T09:44:20.326Z,50.62
2022-07-31T09:45:21.206Z,50.62
2022-07-31T09:46:20.213Z,50.62
2022-07-31T09:47:20.186Z,50.62
2022-07-31T09:48:26.847Z,50.62
2022-07-31T09:49:21.214Z,50.62
2022-07-31T09:50:20.154Z,56.25
2022-07-31T09:51:20.140Z,56.25
2022-07-31T09:52:20.129Z,56.25
2022-07-31T09:53:20.119Z,56.25
2022-07-31T09:54:20.113Z,56.25
2022-07-31T09:55:20.098Z,56.25
2022-07-31T09:56:20.085Z,56.25
2022-07-31T09:57:20.075Z,61.88
2022-07-31T09:58:20.064Z,61.88
2022-07-31T09:59:20.058Z,61.88
2022-07-31T10:00:20.063Z,61.88
2022-07-31T10:01:20.088Z,61.88
2022-07-31T10:02:20.022Z,61.88
2022-07-31T10:03:20.009Z,61.88
2022-07-31T10:04:19.997Z,61.88
2022-07-31T10:05:19.986Z,61.88
2022-07-31T10:06:19.980Z,61.88
2022-07-31T10:07:32.542Z,61.88
2022-07-31T10:08:20.951Z,61.88
2022-07-31T10:09:19.941Z,61.88
2022-07-31T10:10:19.931Z,67.50
2022-07-31T10:11:19.921Z,67.50
2022-07-31T10:12:19.938Z,67.50
2022-07-31T10:13:19.897Z,67.50
2022-07-31T10:14:19.887Z,67.50
2022-07-31T10:15:19.879Z,67.50
2022-07-31T10:16:19.864Z,67.50
2022-07-31T10:17:19.854Z,67.50
2022-07-31T10:18:19.853Z,67.50
2022-07-31T10:19:20.831Z,67.50
2022-07-31T10:20:19.827Z,67.50
2022-07-31T10:21:19.810Z,73.12
2022-07-31T10:22:19.800Z,73.12
2022-07-31T10:23:19.788Z,73.12
2022-07-31T10:24:19.797Z,73.12
2022-07-31T10:25:19.765Z,73.12
2022-07-31T10:26:19.753Z,73.12
2022-07-31T10:27:19.743Z,78.75
2022-07-31T10:28:19.734Z,78.75
2022-07-31T10:29:19.720Z,78.75
2022-07-31T10:30:19.716Z,84.38
2022-07-31T10:31:19.700Z,90.00
2022-07-31T10:32:19.695Z,90.00
2022-07-31T10:33:42.562Z,90.00
2022-07-31T10:34:20.665Z,90.00
2022-07-31T10:35:19.655Z,95.62
2022-07-31T10:36:19.651Z,95.62
2022-07-31T10:37:19.632Z,90.00
2022-07-31T10:38:19.624Z,90.00
2022-07-31T10:39:19.616Z,84.38
2022-07-31T10:40:19.599Z,84.38
2022-07-31T10:41:19.588Z,84.38
2022-07-31T10:42:19.583Z,84.38
2022-07-31T10:43:19.565Z,73.12
2022-07-31T10:44:19.555Z,78.75
2022-07-31T10:45:19.545Z,90.00
2022-07-31T10:46:19.533Z,90.00
2022-07-31T10:47:19.520Z,90.00
2022-07-31T10:48:19.526Z,95.62
2022-07-31T10:49:19.532Z,95.62
2022-07-31T10:50:19.490Z,90.00
2022-07-31T10:51:19.479Z,84.38
2022-07-31T10:52:19.466Z,78.75
2022-07-31T10:53:19.461Z,61.88
2022-07-31T10:54:19.473Z,61.88
2022-07-31T10:55:19.434Z,61.88
2022-07-31T10:56:19.425Z,61.88
2022-07-31T10:57:19.411Z,84.38
2022-07-31T10:58:19.400Z,84.38
2022-07-31T10:59:19.388Z,84.38
2022-07-31T11:00:19.399Z,95.62
2022-07-31T11:01:19.477Z,106.88
2022-07-31T11:02:19.356Z,112.50
2022-07-31T11:03:19.348Z,118.12
2022-07-31T11:04:19.334Z,118.12
2022-07-31T11:05:19.322Z,112.50
2022-07-31T11:06:19.334Z,112.50
2022-07-31T11:07:19.301Z,101.25
2022-07-31T11:08:19.290Z,84.38
2022-07-31T11:09:19.279Z,73.12
2022-07-31T11:10:19.268Z,73.12
2022-07-31T11:11:22.472Z,73.12
2022-07-31T11:12:20.250Z,78.75
2022-07-31T11:13:19.237Z,90.00
2022-07-31T11:14:19.222Z,118.12
2022-07-31T11:15:19.211Z,112.50
2022-07-31T11:16:19.202Z,112.50
2022-07-31T11:17:19.190Z,106.88
2022-07-31T11:18:26.383Z,78.75
2022-07-31T11:19:20.168Z,84.38
2022-07-31T11:20:19.157Z,106.88
2022-07-31T11:21:37.518Z,112.50
2022-07-31T11:22:30.862Z,118.12
2022-07-31T11:23:20.123Z,123.75
2022-07-31T11:24:19.132Z,112.50
2022-07-31T11:25:19.104Z,106.88
2022-07-31T11:26:19.092Z,101.25
2022-07-31T11:27:20.078Z,101.25
2022-07-31T11:28:19.190Z,101.25
2022-07-31T11:30:00.202Z,106.88
2022-07-31T11:30:20.067Z,106.88
2022-07-31T11:31:19.035Z,101.25
2022-07-31T11:32:25.978Z,101.25
2022-07-31T11:33:20.013Z,101.25
2022-07-31T11:34:19.003Z,101.25
2022-07-31T11:35:18.991Z,106.88
2022-07-31T11:36:18.988Z,106.88
2022-07-31T11:37:18.971Z,112.50
2022-07-31T11:38:18.959Z,118.12
2022-07-31T11:39:18.952Z,112.50
2022-07-31T11:40:19.935Z,95.62
2022-07-31T11:41:22.097Z,95.62
2022-07-31T11:42:18.921Z,84.38
2022-07-31T11:43:26.624Z,78.75
2022-07-31T11:44:19.893Z,61.88
2022-07-31T11:45:18.882Z,50.62
2022-07-31T11:46:18.870Z,50.62
2022-07-31T11:48:09.676Z,61.88
2022-07-31T11:48:19.855Z,73.12
2022-07-31T11:49:18.852Z,78.75
2022-07-31T11:50:18.825Z,95.62
2022-07-31T11:51:18.819Z,118.12
2022-07-31T11:52:31.193Z,112.50
2022-07-31T11:53:19.797Z,106.88
2022-07-31T11:54:18.810Z,106.88
2022-07-31T11:55:18.772Z,95.62
2022-07-31T11:56:18.759Z,101.25
2022-07-31T11:57:18.749Z,101.25
2022-07-31T11:58:18.743Z,84.38
2022-07-31T11:59:44.688Z,90.00
2022-07-31T12:00:27.053Z,101.25
2022-07-31T12:01:19.703Z,112.50
2022-07-31T12:02:18.764Z,118.12
2022-07-31T12:03:18.684Z,118.12
2022-07-31T12:04:18.671Z,123.75
2022-07-31T12:05:18.661Z,129.38
2022-07-31T12:06:19.685Z,140.62
2022-07-31T12:07:18.638Z,270.00
2022-07-31T12:08:18.638Z,500.62
2022-07-31T12:10:00.805Z,731.25
2022-07-31T12:10:19.604Z,956.25
2022-07-31T12:11:18.602Z,365.62
2022-07-31T12:12:18.588Z,658.12
2022-07-31T12:13:18.572Z,461.25
2022-07-31T12:14:18.564Z,140.62
2022-07-31T12:15:18.550Z,106.88
2022-07-31T12:16:18.545Z,118.12
2022-07-31T12:17:18.531Z,123.75
2022-07-31T12:18:18.522Z,73.12
2022-07-31T12:19:18.508Z,50.62
2022-07-31T12:20:29.970Z,50.62
2022-07-31T12:21:19.483Z,50.62
2022-07-31T12:22:18.474Z,56.25
2022-07-31T12:23:40.678Z,61.88
2022-07-31T12:24:19.466Z,73.12
2022-07-31T12:25:18.440Z,84.38
2022-07-31T12:26:18.430Z,101.25
2022-07-31T12:27:18.420Z,140.62
2022-07-31T12:28:18.408Z,146.25
2022-07-31T12:29:18.398Z,146.25
2022-07-31T12:30:18.415Z,146.25
2022-07-31T12:31:18.374Z,146.25
2022-07-31T12:32:18.362Z,146.25
2022-07-31T12:33:18.351Z,112.50
2022-07-31T12:34:18.342Z,101.25
2022-07-31T12:35:18.330Z,78.75
2022-07-31T12:36:18.330Z,61.88
2022-07-31T12:37:18.307Z,56.25
2022-07-31T12:38:37.687Z,67.50
2022-07-31T12:39:19.284Z,61.88
2022-07-31T12:40:18.278Z,61.88
2022-07-31T12:41:18.266Z,50.62
2022-07-31T12:42:18.260Z,39.38
2022-07-31T12:43:18.245Z,33.75
2022-07-31T12:44:21.584Z,28.12
2022-07-31T12:45:19.982Z,22.50
2022-07-31T12:46:18.212Z,22.50
2022-07-31T12:47:18.198Z,33.75
2022-07-31T12:48:18.193Z,45.00
2022-07-31T12:49:18.254Z,33.75
2022-07-31T12:50:18.165Z,39.38
2022-07-31T12:51:18.154Z,33.75
2022-07-31T12:52:18.143Z,33.75
2022-07-31T12:53:18.132Z,28.12
2022-07-31T12:54:18.133Z,28.12
2022-07-31T12:55:18.111Z,28.12
2022-07-31T12:56:18.098Z,28.12
2022-07-31T12:57:18.089Z,22.50
2022-07-31T12:58:18.076Z,22.50
2022-07-31T12:59:18.065Z,22.50
2022-07-31T13:00:18.061Z,22.50